createdAt,value
2023-05-17T00:00:09.915Z,100.00
2023-05-17T00:02:37.592Z,100.00
2023-05-17T00:05:06.613Z,100.00
2023-05-17T00:07:34.166Z,100.00
2023-05-17T00:10:03.092Z,100.00
2023-05-17T00:12:30.639Z,100.00
2023-05-17T00:14:58.229Z,100.00
2023-05-17T00:17:25.978Z,100.00
2023-05-17T00:19:53.621Z,100.00
2023-05-17T00:22:21.427Z,100.00
2023-05-17T00:24:49.039Z,100.00
2023-05-17T00:27:17.996Z,100.00
2023-05-17T00:29:45.524Z,100.00
2023-05-17T00:32:13.098Z,100.00
2023-05-17T00:34:40.681Z,100.00
2023-05-17T00:37:08.301Z,100.00
2023-05-17T00:39:36.030Z,100.00
2023-05-17T00:42:03.969Z,100.00
2023-05-17T00:44:32.929Z,100.00
2023-05-17T00:47:00.917Z,100.00
2023-05-17T00:49:28.519Z,100.00
2023-05-17T00:51:56.357Z,100.00
2023-05-17T00:54:23.965Z,100.00
2023-05-17T00:56:51.527Z,100.00
2023-05-17T00:59:19.285Z,100.00
2023-05-17T01:01:48.682Z,100.00
2023-05-17T01:04:16.349Z,100.00
2023-05-17T01:06:43.989Z,100.00
2023-05-17T01:09:11.634Z,100.00
2023-05-17T01:11:43.914Z,100.00
2023-05-17T01:14:22.405Z,100.00
2023-05-17T01:16:57.393Z,100.00
2023-05-17T01:19:41.691Z,100.00
2023-05-17T01:22:17.140Z,100.00
2023-05-17T01:24:52.256Z,100.00
2023-05-17T01:27:22.007Z,100.00
2023-05-17T01:29:50.695Z,100.00
2023-05-17T01:32:19.096Z,100.00
2023-05-17T01:34:46.783Z,100.00
2023-05-17T01:37:14.352Z,100.00
2023-05-17T01:39:42.466Z,100.00
2023-05-17T01:42:15.490Z,100.00
2023-05-17T01:44:50.467Z,100.00
2023-05-17T01:47:22.333Z,100.00
2023-05-17T01:49:54.456Z,100.00
2023-05-17T01:52:27.048Z,100.00
2023-05-17T01:54:57.605Z,100.00
2023-05-17T01:57:29.919Z,100.00
2023-05-17T02:00:01.171Z,100.00
2023-05-17T02:02:28.934Z,100.00
2023-05-17T02:04:56.548Z,100.00
2023-05-17T02:07:24.159Z,100.00
2023-05-17T02:09:52.012Z,100.00
2023-05-17T02:12:19.581Z,100.00
2023-05-17T02:14:47.251Z,100.00
2023-05-17T02:17:16.681Z,100.00
2023-05-17T02:19:44.373Z,100.00
2023-05-17T02:22:11.969Z,100.00
2023-05-17T02:24:39.556Z,100.00
2023-05-17T02:27:07.133Z,100.00
2023-05-17T02:29:36.040Z,100.00
2023-05-17T02:32:03.654Z,100.00
2023-05-17T02:34:32.649Z,100.00
2023-05-17T02:37:00.217Z,100.00
2023-05-17T02:39:27.798Z,100.00
2023-05-17T02:41:55.353Z,100.00
2023-05-17T02:44:22.894Z,100.00
2023-05-17T02:46:50.481Z,100.00
2023-05-17T02:49:18.150Z,100.00
2023-05-17T02:51:47.074Z,100.00
2023-05-17T02:54:14.687Z,100.00
2023-05-17T02:56:42.208Z,100.00
2023-05-17T02:59:09.758Z,100.00
2023-05-17T03:01:37.309Z,100.00
2023-05-17T03:04:05.119Z,100.00
2023-05-17T03:06:34.590Z,100.00
2023-05-17T03:09:03.534Z,100.00
2023-05-17T03:11:31.784Z,100.00
2023-05-17T03:13:59.352Z,100.00
2023-05-17T03:16:26.914Z,100.00
2023-05-17T03:18:54.603Z,100.00
2023-05-17T03:21:22.518Z,100.00
2023-05-17T03:23:50.066Z,100.00
2023-05-17T03:26:19.788Z,100.00
2023-05-17T03:28:47.463Z,100.00
2023-05-17T03:31:15.073Z,100.00
2023-05-17T03:33:42.689Z,100.00
2023-05-17T03:36:10.455Z,100.00
2023-05-17T03:38:38.015Z,100.00
2023-05-17T03:41:05.852Z,100.00
2023-05-17T03:43:34.935Z,100.00
2023-05-17T03:46:02.578Z,100.00
2023-05-17T03:48:30.284Z,100.00
2023-05-17T03:50:57.982Z,100.00
2023-05-17T03:53:25.552Z,100.00
2023-05-17T03:55:53.187Z,100.00
2023-05-17T03:58:20.818Z,100.00
2023-05-17T04:00:50.849Z,100.00
2023-05-17T04:03:20.022Z,100.00
2023-05-17T04:05:47.962Z,100.00
2023-05-17T04:08:15.596Z,100.00
2023-05-17T04:10:43.239Z,100.00
2023-05-17T04:13:10.833Z,100.00
2023-05-17T04:15:38.389Z,100.00
2023-05-17T04:18:07.877Z,100.00
2023-05-17T04:20:35.710Z,100.00
2023-05-17T04:23:03.477Z,100.00
2023-05-17T04:25:31.264Z,100.00
2023-05-17T04:27:58.858Z,100.00
2023-05-17T04:30:26.549Z,100.00
2023-05-17T04:32:54.221Z,100.00
2023-05-17T04:35:23.180Z,100.00
2023-05-17T04:37:50.811Z,100.00
2023-05-17T04:40:18.565Z,100.00
2023-05-17T04:42:46.156Z,100.00
2023-05-17T04:45:15.510Z,100.00
2023-05-17T04:47:43.823Z,100.00
2023-05-17T04:50:11.670Z,100.00
2023-05-17T04:52:40.624Z,100.00
2023-05-17T04:55:08.777Z,100.00
2023-05-17T04:57:36.590Z,100.00
2023-05-17T05:00:06.769Z,100.00
2023-05-17T05:02:34.629Z,100.00
2023-05-17T05:05:02.299Z,100.00
2023-05-17T05:07:30.116Z,100.00
2023-05-17T05:09:59.050Z,100.00
2023-05-17T05:12:26.606Z,100.00
2023-05-17T05:14:54.858Z,100.00
2023-05-17T05:17:22.456Z,100.00
2023-05-17T05:19:50.444Z,100.00
2023-05-17T05:22:18.111Z,100.00
2023-05-17T05:24:45.672Z,100.00
2023-05-17T05:27:14.579Z,100.00
2023-05-17T05:29:43.157Z,100.00
2023-05-17T05:32:11.895Z,100.00
2023-05-17T05:34:39.568Z,100.00
2023-05-17T05:37:07.200Z,100.00
2023-05-17T05:39:37.031Z,100.00
2023-05-17T05:42:05.164Z,100.00
2023-05-17T05:44:34.042Z,100.00
2023-05-17T05:47:01.786Z,100.00
2023-05-17T05:49:29.529Z,100.00
2023-05-17T05:51:57.186Z,100.00
2023-05-17T05:54:24.864Z,100.00
2023-05-17T05:56:52.484Z,100.00
2023-05-17T05:59:20.068Z,100.00
2023-05-17T06:01:49.036Z,100.00
2023-05-17T06:04:16.685Z,100.00
2023-05-17T06:06:44.359Z,100.00
2023-05-17T06:09:12.316Z,100.00
2023-05-17T06:11:40.050Z,100.00
2023-05-17T06:14:08.278Z,100.00
2023-05-17T06:16:35.910Z,100.00
2023-05-17T06:19:05.264Z,100.00
2023-05-17T06:21:33.159Z,100.00
2023-05-17T06:24:02.226Z,100.00
2023-05-17T06:26:31.533Z,100.00
2023-05-17T06:28:59.168Z,100.00
2023-05-17T06:31:26.987Z,100.00
2023-05-17T06:33:54.614Z,100.00
2023-05-17T06:36:24.952Z,100.00
2023-05-17T06:38:53.009Z,100.00
2023-05-17T06:41:20.938Z,100.00
2023-05-17T06:43:48.514Z,100.00
2023-05-17T06:46:16.143Z,100.00
2023-05-17T06:48:43.869Z,100.00
2023-05-17T06:51:12.789Z,100.00
2023-05-17T06:53:41.712Z,100.00
2023-05-17T06:56:09.420Z,100.00
2023-05-17T06:58:37.157Z,100.00
2023-05-17T07:01:04.850Z,100.00
2023-05-17T07:03:32.617Z,100.00
2023-05-17T07:06:00.903Z,100.00
2023-05-17T07:08:28.602Z,100.00
2023-05-17T07:10:57.508Z,100.00
2023-05-17T07:13:25.138Z,100.00
2023-05-17T07:15:52.794Z,100.00
2023-05-17T07:18:20.635Z,100.00
2023-05-17T07:20:48.360Z,100.00
2023-05-17T07:23:16.122Z,100.00
2023-05-17T07:25:43.750Z,100.00
2023-05-17T07:28:12.707Z,100.00
2023-05-17T07:30:40.357Z,100.00
2023-05-17T07:33:08.066Z,100.00
2023-05-17T07:35:35.819Z,100.00
2023-05-17T07:38:04.451Z,100.00
2023-05-17T07:40:32.119Z,100.00
2023-05-17T07:43:00.008Z,100.00
2023-05-17T07:45:29.702Z,100.00
2023-05-17T07:47:57.912Z,100.00
2023-05-17T07:50:25.913Z,100.00
2023-05-17T07:52:53.571Z,100.00
2023-05-17T07:55:21.624Z,100.00
2023-05-17T07:57:49.215Z,100.00
2023-05-17T08:00:19.249Z,100.00
2023-05-17T08:02:48.626Z,100.00
2023-05-17T08:05:16.556Z,100.00
2023-05-17T08:07:44.298Z,100.00
2023-05-17T08:10:12.284Z,100.00
2023-05-17T08:12:39.845Z,100.00
2023-05-17T08:15:08.480Z,100.00
2023-05-17T08:17:36.203Z,100.00
2023-05-17T08:20:06.156Z,100.00
2023-05-17T08:22:33.943Z,100.00
2023-05-17T08:25:01.520Z,98.86
2023-05-17T08:27:31.038Z,100.00
2023-05-17T08:29:59.759Z,100.00
2023-05-17T08:32:27.429Z,100.00
2023-05-17T08:34:55.884Z,100.00
2023-05-17T08:37:24.950Z,100.00
2023-05-17T08:39:52.738Z,100.00
2023-05-17T08:42:24.590Z,97.07
2023-05-17T08:44:52.842Z,93.12
2023-05-17T08:47:29.965Z,95.76
2023-05-17T08:50:00.962Z,95.45
2023-05-17T08:52:32.331Z,95.13
2023-05-17T08:55:01.020Z,97.31
2023-05-17T08:57:30.172Z,99.04
2023-05-17T08:59:59.789Z,98.86
2023-05-17T09:02:28.084Z,95.82
2023-05-17T09:04:56.526Z,94.01
2023-05-17T09:07:24.328Z,92.43
2023-05-17T09:09:54.358Z,92.74
2023-05-17T09:12:24.205Z,91.66
2023-05-17T09:14:53.423Z,94.75
2023-05-17T09:17:22.273Z,95.14
2023-05-17T09:19:50.451Z,91.77
2023-05-17T09:22:19.478Z,89.33
2023-05-17T09:24:47.154Z,91.49
2023-05-17T09:27:18.894Z,88.38
2023-05-17T09:29:47.603Z,87.49
2023-05-17T09:32:15.904Z,87.40
2023-05-17T09:34:43.980Z,87.80
2023-05-17T09:37:15.964Z,87.28
2023-05-17T09:39:44.797Z,79.35
2023-05-17T09:42:12.707Z,82.25
2023-05-17T09:44:53.143Z,81.12
2023-05-17T09:47:24.991Z,82.23
2023-05-17T09:49:52.724Z,83.38
2023-05-17T09:52:21.277Z,79.92
2023-05-17T09:54:56.316Z,74.48
2023-05-17T09:57:24.312Z,78.10
2023-05-17T09:59:56.776Z,72.04
2023-05-17T10:02:28.836Z,71.76
2023-05-17T10:04:58.262Z,73.02
2023-05-17T10:07:27.838Z,75.05
2023-05-17T10:09:56.577Z,74.37
2023-05-17T10:12:25.628Z,73.50
2023-05-17T10:14:57.004Z,74.87
2023-05-17T10:17:25.241Z,73.11
2023-05-17T10:19:53.824Z,70.15
2023-05-17T10:22:23.876Z,70.35
2023-05-17T10:24:52.393Z,69.06
2023-05-17T10:27:20.114Z,70.49
2023-05-17T10:29:50.555Z,71.23
2023-05-17T10:32:23.185Z,67.53
2023-05-17T10:35:05.932Z,67.44
2023-05-17T10:37:38.835Z,72.08
2023-05-17T10:40:13.222Z,67.89
2023-05-17T10:42:42.391Z,68.83
2023-05-17T10:45:10.756Z,66.53
2023-05-17T10:47:41.360Z,69.88
2023-05-17T10:50:13.353Z,69.86
2023-05-17T10:52:47.469Z,68.56
2023-05-17T10:55:15.148Z,72.90
2023-05-17T10:57:50.730Z,69.98
2023-05-17T11:00:21.393Z,69.09
2023-05-17T11:02:51.086Z,66.40
2023-05-17T11:05:25.608Z,64.26
2023-05-17T11:07:53.336Z,62.39
2023-05-17T11:10:20.939Z,66.63
2023-05-17T11:12:54.002Z,65.24
2023-05-17T11:15:24.846Z,67.08
2023-05-17T11:17:54.817Z,64.47
2023-05-17T11:20:33.704Z,62.62
2023-05-17T11:23:02.918Z,61.47
2023-05-17T11:25:32.414Z,59.83
2023-05-17T11:28:00.576Z,64.18
2023-05-17T11:30:30.668Z,61.79
2023-05-17T11:33:01.906Z,60.89
2023-05-17T11:35:31.312Z,63.53
2023-05-17T11:38:15.495Z,64.68
2023-05-17T11:40:43.771Z,66.40
2023-05-17T11:43:12.906Z,64.74
2023-05-17T11:45:43.223Z,65.86
2023-05-17T11:48:13.139Z,68.01
2023-05-17T11:50:41.089Z,66.63
2023-05-17T11:53:10.049Z,64.51
2023-05-17T11:55:39.917Z,63.71
2023-05-17T11:58:09.178Z,59.84
2023-05-17T12:00:37.430Z,58.87
2023-05-17T12:03:22.338Z,58.05
2023-05-17T12:05:51.466Z,59.41
2023-05-17T12:08:20.270Z,60.36
2023-05-17T12:10:49.501Z,63.15
2023-05-17T12:13:17.186Z,60.92
2023-05-17T12:15:47.335Z,63.99
2023-05-17T12:18:15.121Z,61.77
2023-05-17T12:20:56.131Z,60.35
2023-05-17T12:23:30.980Z,60.66
2023-05-17T12:26:07.073Z,62.31
2023-05-17T12:28:35.344Z,59.05
2023-05-17T12:31:03.800Z,57.75
2023-05-17T12:33:33.059Z,52.60
2023-05-17T12:36:03.206Z,51.74
2023-05-17T12:38:33.209Z,53.10
2023-05-17T12:41:02.664Z,54.57
2023-05-17T12:43:31.699Z,56.54
2023-05-17T12:46:07.316Z,57.38
2023-05-17T12:48:36.150Z,53.84
2023-05-17T12:51:11.722Z,55.50
2023-05-17T12:53:40.525Z,54.14
2023-05-17T12:56:09.033Z,51.08
2023-05-17T12:58:36.760Z,51.03
2023-05-17T13:01:07.077Z,52.87
2023-05-17T13:03:35.470Z,49.43
2023-05-17T13:06:05.661Z,50.66
2023-05-17T13:08:34.938Z,49.61
2023-05-17T13:11:10.039Z,48.36
2023-05-17T13:13:37.832Z,46.49
2023-05-17T13:16:05.935Z,47.39
2023-05-17T13:18:48.411Z,47.90
2023-05-17T13:21:16.197Z,47.67
2023-05-17T13:23:45.514Z,47.45
2023-05-17T13:26:13.830Z,48.08
2023-05-17T13:28:41.745Z,48.65
2023-05-17T13:31:09.366Z,48.77
2023-05-17T13:33:37.033Z,52.25
2023-05-17T13:36:05.054Z,52.12
2023-05-17T13:38:32.794Z,55.02
2023-05-17T13:41:01.687Z,56.69
2023-05-17T13:43:29.306Z,57.52
2023-05-17T13:45:58.943Z,58.87
2023-05-17T13:48:26.694Z,54.64
2023-05-17T13:50:54.444Z,51.93
2023-05-17T13:53:22.072Z,53.92
2023-05-17T13:55:49.782Z,51.51
2023-05-17T13:58:18.719Z,52.38
2023-05-17T14:00:46.812Z,53.41
2023-05-17T14:03:14.744Z,55.18
2023-05-17T14:05:42.619Z,54.36
2023-05-17T14:08:10.216Z,50.05
2023-05-17T14:10:37.784Z,49.18
2023-05-17T14:13:05.387Z,50.40
2023-05-17T14:15:37.969Z,45.82
2023-05-17T14:18:06.278Z,45.68
2023-05-17T14:20:34.575Z,45.66
2023-05-17T14:23:02.373Z,47.74
2023-05-17T14:25:30.089Z,47.57
2023-05-17T14:27:57.690Z,47.06
2023-05-17T14:30:25.707Z,49.24
2023-05-17T14:32:54.661Z,50.27
2023-05-17T14:35:22.285Z,52.54
2023-05-17T14:37:49.849Z,54.77
2023-05-17T14:40:17.605Z,57.02
2023-05-17T14:42:45.165Z,58.29
2023-05-17T14:45:12.767Z,59.94
2023-05-17T14:47:40.414Z,61.66
2023-05-17T14:50:10.652Z,62.80
2023-05-17T14:52:38.312Z,63.01
2023-05-17T14:55:06.947Z,66.58
2023-05-17T14:57:34.636Z,64.88
2023-05-17T15:00:03.066Z,66.52
2023-05-17T15:02:30.779Z,64.77
2023-05-17T15:04:58.453Z,66.69
2023-05-17T15:07:27.589Z,66.50
2023-05-17T15:09:55.234Z,65.11
2023-05-17T15:12:22.883Z,64.68
2023-05-17T15:14:50.510Z,62.62
2023-05-17T15:17:18.422Z,62.94
2023-05-17T15:19:46.452Z,64.11
2023-05-17T15:22:14.279Z,67.33
2023-05-17T15:24:44.002Z,67.73
2023-05-17T15:27:15.564Z,68.60
2023-05-17T15:29:43.289Z,71.78
2023-05-17T15:32:11.297Z,69.41
2023-05-17T15:34:38.905Z,71.78
2023-05-17T15:37:06.758Z,75.07
2023-05-17T15:39:34.353Z,74.75
2023-05-17T15:42:03.266Z,78.36
2023-05-17T15:44:31.068Z,79.09
2023-05-17T15:47:00.816Z,78.68
2023-05-17T15:49:30.062Z,80.15
2023-05-17T15:51:57.742Z,82.81
2023-05-17T15:54:25.453Z,82.65
2023-05-17T15:56:53.016Z,81.97
2023-05-17T15:59:22.010Z,82.20
2023-05-17T16:01:49.728Z,83.13
2023-05-17T16:04:17.466Z,80.31
2023-05-17T16:06:45.211Z,81.18
2023-05-17T16:09:14.357Z,78.22
2023-05-17T16:11:41.995Z,78.70
2023-05-17T16:14:09.743Z,81.95
2023-05-17T16:16:38.695Z,79.00
2023-05-17T16:19:06.588Z,78.18
2023-05-17T16:21:35.552Z,80.26
2023-05-17T16:24:04.150Z,80.25
2023-05-17T16:26:32.172Z,79.28
2023-05-17T16:29:00.729Z,80.40
2023-05-17T16:31:28.641Z,79.59
2023-05-17T16:33:57.568Z,78.29
2023-05-17T16:36:25.389Z,79.62
2023-05-17T16:38:53.048Z,78.82
2023-05-17T16:41:21.774Z,78.37
2023-05-17T16:43:49.288Z,78.17
2023-05-17T16:46:18.963Z,79.22
2023-05-17T16:48:46.622Z,79.89
2023-05-17T16:51:15.589Z,78.87
2023-05-17T16:53:43.144Z,79.40
2023-05-17T16:56:10.689Z,83.10
2023-05-17T16:58:38.559Z,83.04
2023-05-17T17:01:06.360Z,81.70
2023-05-17T17:03:34.092Z,80.09
2023-05-17T17:06:01.676Z,76.61
2023-05-17T17:08:30.648Z,77.59
2023-05-17T17:10:58.302Z,78.35
2023-05-17T17:13:26.531Z,79.63
2023-05-17T17:15:54.699Z,81.42
2023-05-17T17:18:22.354Z,80.72
2023-05-17T17:20:49.930Z,87.06
2023-05-17T17:23:17.482Z,80.34
2023-05-17T17:25:46.420Z,84.00
2023-05-17T17:28:14.196Z,83.01
2023-05-17T17:30:41.886Z,83.50
2023-05-17T17:33:09.695Z,83.76
2023-05-17T17:35:37.303Z,82.45
2023-05-17T17:38:04.896Z,82.81
2023-05-17T17:40:32.664Z,84.14
2023-05-17T17:43:01.837Z,84.87
2023-05-17T17:45:29.433Z,86.06
2023-05-17T17:47:57.048Z,88.94
2023-05-17T17:50:24.590Z,89.90
2023-05-17T17:52:52.150Z,89.39
2023-05-17T17:55:19.746Z,89.57
2023-05-17T17:57:47.317Z,90.18
2023-05-17T18:00:16.996Z,89.88
2023-05-17T18:02:44.696Z,91.00
2023-05-17T18:05:12.664Z,96.23
2023-05-17T18:07:40.254Z,94.42
2023-05-17T18:10:08.642Z,98.27
2023-05-17T18:12:36.231Z,97.77
2023-05-17T18:15:03.871Z,97.57
2023-05-17T18:17:32.819Z,100.00
2023-05-17T18:20:00.525Z,100.00
2023-05-17T18:22:28.135Z,100.00
2023-05-17T18:24:55.868Z,100.00
2023-05-17T18:27:23.421Z,100.00
2023-05-17T18:29:51.014Z,100.00
2023-05-17T18:32:18.816Z,100.00
2023-05-17T18:34:47.728Z,100.00
2023-05-17T18:37:15.353Z,100.00
2023-05-17T18:39:42.972Z,100.00
2023-05-17T18:42:10.562Z,100.00
2023-05-17T18:44:38.121Z,100.00
2023-05-17T18:47:06.438Z,100.00
2023-05-17T18:49:34.032Z,100.00
2023-05-17T18:52:03.024Z,100.00
2023-05-17T18:54:30.608Z,100.00
2023-05-17T18:56:58.188Z,100.00
2023-05-17T18:59:25.826Z,100.00
2023-05-17T19:01:53.404Z,100.00
2023-05-17T19:04:21.047Z,100.00
2023-05-17T19:06:48.632Z,100.00
2023-05-17T19:09:17.695Z,100.00
2023-05-17T19:11:45.522Z,100.00
2023-05-17T19:14:14.647Z,100.00
2023-05-17T19:16:42.290Z,100.00
2023-05-17T19:19:09.984Z,100.00
2023-05-17T19:21:37.632Z,100.00
2023-05-17T19:24:06.022Z,100.00
2023-05-17T19:26:34.885Z,100.00
2023-05-17T19:29:02.538Z,100.00
2023-05-17T19:31:30.131Z,100.00
2023-05-17T19:33:59.245Z,100.00
2023-05-17T19:36:26.885Z,100.00
2023-05-17T19:38:54.640Z,100.00
2023-05-17T19:41:22.537Z,100.00
2023-05-17T19:43:51.398Z,100.00
2023-05-17T19:46:19.038Z,100.00
2023-05-17T19:48:46.864Z,100.00
2023-05-17T19:51:14.450Z,100.00
2023-05-17T19:53:52.311Z,100.00
2023-05-17T19:56:21.452Z,100.00
2023-05-17T19:58:49.213Z,100.00
2023-05-17T20:01:18.134Z,100.00
2023-05-17T20:03:46.141Z,100.00
2023-05-17T20:06:14.885Z,100.00
2023-05-17T20:08:42.885Z,100.00
2023-05-17T20:11:10.879Z,100.00
2023-05-17T20:13:40.233Z,100.00
2023-05-17T20:16:12.370Z,100.00
2023-05-17T20:18:43.544Z,100.00
2023-05-17T20:21:12.500Z,100.00
2023-05-17T20:23:40.960Z,100.00
2023-05-17T20:26:08.523Z,100.00
2023-05-17T20:28:36.099Z,100.00
2023-05-17T20:31:03.645Z,100.00
2023-05-17T20:33:31.235Z,100.00
2023-05-17T20:36:00.149Z,100.00
2023-05-17T20:38:27.747Z,100.00
2023-05-17T20:40:55.458Z,100.00
2023-05-17T20:43:28.687Z,100.00
2023-05-17T20:45:56.459Z,100.00
2023-05-17T20:48:24.195Z,100.00
2023-05-17T20:50:51.717Z,100.00
2023-05-17T20:53:20.620Z,100.00
2023-05-17T20:55:49.246Z,100.00
2023-05-17T20:58:16.846Z,100.00
2023-05-17T21:00:44.447Z,100.00
2023-05-17T21:03:12.077Z,100.00
2023-05-17T21:05:39.720Z,100.00
2023-05-17T21:08:08.210Z,100.00
2023-05-17T21:10:40.554Z,100.00
2023-05-17T21:13:09.251Z,100.00
2023-05-17T21:15:37.184Z,100.00
2023-05-17T21:18:06.652Z,100.00
2023-05-17T21:20:34.277Z,100.00
2023-05-17T21:23:01.855Z,100.00
2023-05-17T21:25:29.724Z,100.00
2023-05-17T21:27:58.750Z,100.00
2023-05-17T21:30:26.454Z,100.00
2023-05-17T21:32:54.125Z,100.00
2023-05-17T21:35:21.825Z,100.00
2023-05-17T21:37:49.436Z,100.00
2023-05-17T21:40:16.978Z,100.00
2023-05-17T21:42:44.522Z,100.00
2023-05-17T21:45:14.749Z,100.00
2023-05-17T21:47:42.461Z,100.00
2023-05-17T21:50:11.676Z,100.00
2023-05-17T21:52:39.416Z,100.00
2023-05-17T21:55:08.578Z,100.00
2023-05-17T21:57:36.755Z,100.00
2023-05-17T22:00:05.973Z,100.00
2023-05-17T22:02:36.008Z,100.00
2023-05-17T22:05:03.753Z,100.00
2023-05-17T22:07:31.316Z,100.00
2023-05-17T22:10:00.248Z,100.00
2023-05-17T22:12:27.873Z,100.00
2023-05-17T22:14:56.681Z,100.00
2023-05-17T22:17:35.175Z,100.00
2023-05-17T22:20:12.566Z,100.00
2023-05-17T22:22:40.135Z,100.00
2023-05-17T22:25:08.969Z,100.00
2023-05-17T22:27:36.522Z,100.00
2023-05-17T22:30:04.207Z,100.00
2023-05-17T22:32:31.998Z,100.00
2023-05-17T22:34:59.537Z,100.00
2023-05-17T22:37:30.318Z,100.00
2023-05-17T22:39:57.874Z,100.00
2023-05-17T22:42:25.476Z,100.00
2023-05-17T22:44:53.060Z,100.00
2023-05-17T22:47:22.896Z,100.00
2023-05-17T22:49:52.346Z,100.00
2023-05-17T22:52:20.092Z,100.00
2023-05-17T22:54:49.009Z,100.00
2023-05-17T22:57:17.045Z,100.00
2023-05-17T22:59:44.661Z,100.00
2023-05-17T23:02:12.694Z,100.00
2023-05-17T23:04:40.576Z,100.00
2023-05-17T23:07:10.023Z,100.00
2023-05-17T23:09:40.329Z,100.00
2023-05-17T23:12:14.015Z,100.00
2023-05-17T23:14:41.773Z,100.00
2023-05-17T23:17:09.855Z,100.00
2023-05-17T23:19:37.437Z,100.00
2023-05-17T23:22:06.414Z,100.00
2023-05-17T23:24:38.362Z,100.00
2023-05-17T23:27:10.137Z,100.00
2023-05-17T23:29:41.353Z,100.00
2023-05-17T23:32:09.122Z,100.00
2023-05-17T23:34:36.697Z,100.00
2023-05-17T23:37:04.302Z,100.00
2023-05-17T23:39:31.833Z,100.00
2023-05-17T23:41:59.399Z,100.00
2023-05-17T23:44:27.023Z,100.00
2023-05-17T23:46:56.296Z,100.00
2023-05-17T23:49:24.028Z,100.00
2023-05-17T23:51:51.740Z,100.00
2023-05-17T23:54:19.970Z,100.00
2023-05-17T23:56:47.585Z,100.00
2023-05-17T23:59:15.348Z,100.00
